sensor_id;sensor_type;location;lat;lon;timestamp;pressure;altitude;pressure_sealevel;temperature;humidity
77110;BME280;66062;52.464;16.922;2023-10-31T00:00:54;98860.91;;;12.91;100.00
77110;BME280;66062;52.464;16.922;2023-10-31T00:03:20;98862.63;;;12.99;100.00
77110;BME280;66062;52.464;16.922;2023-10-31T00:05:45;98859.72;;;12.94;100.00
77110;BME280;66062;52.464;16.922;2023-10-31T00:08:11;98857.03;;;12.94;100.00
77110;BME280;66062;52.464;16.922;2023-10-31T00:10:36;98850.44;;;12.90;100.00
77110;BME280;66062;52.464;16.922;2023-10-31T00:13:01;98841.16;;;12.92;100.00
77110;BME280;66062;52.464;16.922;2023-10-31T00:15:27;98843.84;;;12.92;100.00
77110;BME280;66062;52.464;16.922;2023-10-31T00:17:54;98844.06;;;12.97;100.00
77110;BME280;66062;52.464;16.922;2023-10-31T00:20:19;98830.41;;;12.85;100.00
77110;BME280;66062;52.464;16.922;2023-10-31T00:22:45;98825.31;;;12.97;100.00
77110;BME280;66062;52.464;16.922;2023-10-31T00:25:11;98819.13;;;12.97;100.00
77110;BME280;66062;52.464;16.922;2023-10-31T00:27:36;98816.88;;;12.94;100.00
77110;BME280;66062;52.464;16.922;2023-10-31T00:30:02;98794.25;;;13.03;100.00
77110;BME280;66062;52.464;16.922;2023-10-31T00:32:27;98794.31;;;13.16;100.00
77110;BME280;66062;52.464;16.922;2023-10-31T00:34:53;98783.53;;;13.03;100.00
77110;BME280;66062;52.464;16.922;2023-10-31T00:37:18;98780.84;;;13.03;100.00
77110;BME280;66062;52.464;16.922;2023-10-31T00:39:45;98779.81;;;12.97;100.00
77110;BME280;66062;52.464;16.922;2023-10-31T00:42:10;98786.78;;;12.92;100.00
77110;BME280;66062;52.464;16.922;2023-10-31T00:44:35;98779.72;;;12.77;100.00
77110;BME280;66062;52.464;16.922;2023-10-31T00:47:01;98775.84;;;12.86;100.00
77110;BME280;66062;52.464;16.922;2023-10-31T00:49:27;98768.22;;;12.90;100.00
77110;BME280;66062;52.464;16.922;2023-10-31T00:51:52;98766.81;;;12.94;100.00
77110;BME280;66062;52.464;16.922;2023-10-31T00:54:17;98752.97;;;12.91;100.00
77110;BME280;66062;52.464;16.922;2023-10-31T00:56:43;98750.75;;;13.01;100.00
77110;BME280;66062;52.464;16.922;2023-10-31T00:59:08;98741.09;;;13.06;100.00
77110;BME280;66062;52.464;16.922;2023-10-31T01:01:33;98742.94;;;13.06;100.00
77110;BME280;66062;52.464;16.922;2023-10-31T01:03:59;98738.22;;;13.08;100.00
77110;BME280;66062;52.464;16.922;2023-10-31T01:06:24;98722.16;;;13.08;100.00
77110;BME280;66062;52.464;16.922;2023-10-31T01:08:50;98720.50;;;13.07;100.00
77110;BME280;66062;52.464;16.922;2023-10-31T01:11:15;98719.25;;;13.03;100.00
77110;BME280;66062;52.464;16.922;2023-10-31T01:13:40;98714.09;;;13.01;100.00
77110;BME280;66062;52.464;16.922;2023-10-31T01:16:06;98708.81;;;13.14;100.00
77110;BME280;66062;52.464;16.922;2023-10-31T01:18:31;98701.59;;;13.21;100.00
77110;BME280;66062;52.464;16.922;2023-10-31T01:20:57;98714.41;;;13.19;100.00
77110;BME280;66062;52.464;16.922;2023-10-31T01:23:22;98697.91;;;13.29;100.00
77110;BME280;66062;52.464;16.922;2023-10-31T01:25:48;98678.56;;;13.34;100.00
77110;BME280;66062;52.464;16.922;2023-10-31T01:28:13;98687.22;;;13.36;100.00
77110;BME280;66062;52.464;16.922;2023-10-31T01:30:39;98679.56;;;13.33;100.00
77110;BME280;66062;52.464;16.922;2023-10-31T01:33:04;98671.53;;;13.26;100.00
77110;BME280;66062;52.464;16.922;2023-10-31T01:35:29;98678.97;;;13.31;100.00
77110;BME280;66062;52.464;16.922;2023-10-31T01:37:55;98668.66;;;13.34;100.00
77110;BME280;66062;52.464;16.922;2023-10-31T01:40:20;98656.69;;;13.43;100.00
77110;BME280;66062;52.464;16.922;2023-10-31T01:42:45;98659.59;;;13.48;100.00
77110;BME280;66062;52.464;16.922;2023-10-31T01:45:11;98664.97;;;13.55;100.00
77110;BME280;66062;52.464;16.922;2023-10-31T01:47:36;98664.13;;;13.54;100.00
77110;BME280;66062;52.464;16.922;2023-10-31T01:50:02;98652.78;;;13.59;100.00
77110;BME280;66062;52.464;16.922;2023-10-31T01:52:28;98645.16;;;13.62;100.00
77110;BME280;66062;52.464;16.922;2023-10-31T01:54:54;98638.13;;;13.61;100.00
77110;BME280;66062;52.464;16.922;2023-10-31T01:57:21;98627.44;;;13.55;100.00
77110;BME280;66062;52.464;16.922;2023-10-31T01:59:47;98623.94;;;13.54;100.00
77110;BME280;66062;52.464;16.922;2023-10-31T02:02:12;98614.44;;;13.58;100.00
77110;BME280;66062;52.464;16.922;2023-10-31T02:04:38;98605.38;;;13.53;100.00
77110;BME280;66062;52.464;16.922;2023-10-31T02:07:03;98612.56;;;13.52;100.00
77110;BME280;66062;52.464;16.922;2023-10-31T02:09:29;98597.94;;;13.48;100.00
77110;BME280;66062;52.464;16.922;2023-10-31T02:11:55;98599.56;;;13.62;100.00
77110;BME280;66062;52.464;16.922;2023-10-31T02:14:24;98584.50;;;13.75;100.00
77110;BME280;66062;52.464;16.922;2023-10-31T02:16:50;98578.53;;;13.73;100.00
77110;BME280;66062;52.464;16.922;2023-10-31T02:19:19;98578.75;;;13.71;100.00
77110;BME280;66062;52.464;16.922;2023-10-31T02:21:45;98575.22;;;13.77;100.00
77110;BME280;66062;52.464;16.922;2023-10-31T02:24:10;98558.91;;;13.79;100.00
77110;BME280;66062;52.464;16.922;2023-10-31T02:26:36;98551.31;;;13.76;100.00
77110;BME280;66062;52.464;16.922;2023-10-31T02:29:02;98545.72;;;13.84;100.00
77110;BME280;66062;52.464;16.922;2023-10-31T02:31:28;98545.75;;;13.70;100.00
77110;BME280;66062;52.464;16.922;2023-10-31T02:33:53;98539.97;;;13.67;100.00
77110;BME280;66062;52.464;16.922;2023-10-31T02:36:19;98534.16;;;13.83;100.00
77110;BME280;66062;52.464;16.922;2023-10-31T02:38:45;98535.22;;;13.76;100.00
77110;BME280;66062;52.464;16.922;2023-10-31T02:41:10;98532.91;;;13.86;100.00
77110;BME280;66062;52.464;16.922;2023-10-31T02:43:37;98539.53;;;13.77;100.00
77110;BME280;66062;52.464;16.922;2023-10-31T02:46:03;98532.09;;;13.79;100.00
77110;BME280;66062;52.464;16.922;2023-10-31T02:48:28;98527.50;;;13.92;100.00
77110;BME280;66062;52.464;16.922;2023-10-31T02:50:54;98530.84;;;13.88;100.00
77110;BME280;66062;52.464;16.922;2023-10-31T02:53:20;98516.66;;;13.67;100.00
77110;BME280;66062;52.464;16.922;2023-10-31T02:55:45;98515.22;;;13.71;100.00
77110;BME280;66062;52.464;16.922;2023-10-31T02:58:11;98512.94;;;13.75;100.00
77110;BME280;66062;52.464;16.922;2023-10-31T03:00:36;98515.38;;;13.83;100.00
77110;BME280;66062;52.464;16.922;2023-10-31T03:03:02;98507.31;;;13.90;100.00
77110;BME280;66062;52.464;16.922;2023-10-31T03:05:28;98498.63;;;13.94;100.00
77110;BME280;66062;52.464;16.922;2023-10-31T03:07:53;98505.03;;;13.93;100.00
77110;BME280;66062;52.464;16.922;2023-10-31T03:10:19;98490.56;;;14.01;100.00
77110;BME280;66062;52.464;16.922;2023-10-31T03:12:45;98490.34;;;14.02;100.00
77110;BME280;66062;52.464;16.922;2023-10-31T03:15:10;98486.59;;;14.10;100.00
77110;BME280;66062;52.464;16.922;2023-10-31T03:17:36;98493.63;;;14.11;100.00
77110;BME280;66062;52.464;16.922;2023-10-31T03:20:02;98484.09;;;14.15;100.00
77110;BME280;66062;52.464;16.922;2023-10-31T03:22:29;98477.53;;;14.04;100.00
77110;BME280;66062;52.464;16.922;2023-10-31T03:24:54;98481.06;;;14.05;100.00
77110;BME280;66062;52.464;16.922;2023-10-31T03:27:20;98480.03;;;14.06;100.00
77110;BME280;66062;52.464;16.922;2023-10-31T03:29:46;98478.75;;;14.08;100.00
77110;BME280;66062;52.464;16.922;2023-10-31T03:32:11;98480.59;;;14.14;100.00
77110;BME280;66062;52.464;16.922;2023-10-31T03:34:37;98479.38;;;14.10;100.00
77110;BME280;66062;52.464;16.922;2023-10-31T03:37:04;98475.88;;;14.10;100.00
77110;BME280;66062;52.464;16.922;2023-10-31T03:39:29;98478.09;;;14.13;100.00
77110;BME280;66062;52.464;16.922;2023-10-31T03:41:55;98466.13;;;14.16;100.00
77110;BME280;66062;52.464;16.922;2023-10-31T03:44:20;98461.19;;;14.12;100.00
77110;BME280;66062;52.464;16.922;2023-10-31T03:46:46;98463.03;;;14.12;100.00
77110;BME280;66062;52.464;16.922;2023-10-31T03:49:11;98466.72;;;14.18;100.00
77110;BME280;66062;52.464;16.922;2023-10-31T03:51:36;98460.78;;;14.16;100.00
77110;BME280;66062;52.464;16.922;2023-10-31T03:54:02;98453.75;;;14.14;100.00
77110;BME280;66062;52.464;16.922;2023-10-31T03:56:27;98455.16;;;14.17;100.00
77110;BME280;66062;52.464;16.922;2023-10-31T03:58:53;98450.81;;;14.23;100.00
77110;BME280;66062;52.464;16.922;2023-10-31T04:01:18;98454.75;;;14.20;100.00
77110;BME280;66062;52.464;16.922;2023-10-31T04:03:44;98451.88;;;14.22;100.00
77110;BME280;66062;52.464;16.922;2023-10-31T04:06:09;98446.53;;;14.15;100.00
77110;BME280;66062;52.464;16.922;2023-10-31T04:08:35;98451.28;;;14.13;100.00
77110;BME280;66062;52.464;16.922;2023-10-31T04:11:00;98450.44;;;14.12;100.00
77110;BME280;66062;52.464;16.922;2023-10-31T04:13:25;98449.44;;;14.07;100.00
77110;BME280;66062;52.464;16.922;2023-10-31T04:15:51;98453.97;;;14.13;100.00
77110;BME280;66062;52.464;16.922;2023-10-31T04:18:16;98444.69;;;14.16;100.00
77110;BME280;66062;52.464;16.922;2023-10-31T04:20:42;98443.22;;;14.13;100.00
77110;BME280;66062;52.464;16.922;2023-10-31T04:23:07;98445.16;;;14.06;100.00
77110;BME280;66062;52.464;16.922;2023-10-31T04:25:33;98435.41;;;14.11;100.00
77110;BME280;66062;52.464;16.922;2023-10-31T04:27:59;98439.97;;;14.11;100.00
77110;BME280;66062;52.464;16.922;2023-10-31T04:30:24;98436.22;;;14.12;100.00
77110;BME280;66062;52.464;16.922;2023-10-31T04:32:49;98437.88;;;14.13;100.00
77110;BME280;66062;52.464;16.922;2023-10-31T04:35:15;98436.84;;;14.14;100.00
77110;BME280;66062;52.464;16.922;2023-10-31T04:37:40;98431.47;;;14.14;100.00
77110;BME280;66062;52.464;16.922;2023-10-31T04:40:06;98421.78;;;14.13;100.00
77110;BME280;66062;52.464;16.922;2023-10-31T04:42:32;98425.06;;;14.15;100.00
77110;BME280;66062;52.464;16.922;2023-10-31T04:44:59;98422.22;;;14.10;100.00
77110;BME280;66062;52.464;16.922;2023-10-31T04:47:24;98426.31;;;14.12;100.00
77110;BME280;66062;52.464;16.922;2023-10-31T04:49:50;98414.81;;;14.05;100.00
77110;BME280;66062;52.464;16.922;2023-10-31T04:52:17;98411.91;;;14.07;100.00
77110;BME280;66062;52.464;16.922;2023-10-31T04:54:42;98414.19;;;14.03;100.00
77110;BME280;66062;52.464;16.922;2023-10-31T04:57:08;98415.47;;;14.01;100.00
77110;BME280;66062;52.464;16.922;2023-10-31T04:59:33;98408.94;;;13.90;100.00
77110;BME280;66062;52.464;16.922;2023-10-31T05:01:58;98411.16;;;13.93;100.00
77110;BME280;66062;52.464;16.922;2023-10-31T05:04:24;98415.28;;;13.96;100.00
77110;BME280;66062;52.464;16.922;2023-10-31T05:06:49;98404.75;;;14.01;100.00
77110;BME280;66062;52.464;16.922;2023-10-31T05:09:14;98406.34;;;14.02;100.00
77110;BME280;66062;52.464;16.922;2023-10-31T05:11:40;98410.50;;;13.98;100.00
77110;BME280;66062;52.464;16.922;2023-10-31T05:14:08;98404.13;;;13.99;100.00
77110;BME280;66062;52.464;16.922;2023-10-31T05:16:43;98399.97;;;14.03;100.00
77110;BME280;66062;52.464;16.922;2023-10-31T05:19:10;98398.09;;;14.03;100.00
77110;BME280;66062;52.464;16.922;2023-10-31T05:21:35;98398.31;;;14.02;100.00
77110;BME280;66062;52.464;16.922;2023-10-31T05:24:01;98407.41;;;14.01;100.00
77110;BME280;66062;52.464;16.922;2023-10-31T05:26:27;98402.44;;;14.04;100.00
77110;BME280;66062;52.464;16.922;2023-10-31T05:28:56;98395.81;;;14.07;100.00
77110;BME280;66062;52.464;16.922;2023-10-31T05:31:23;98393.56;;;14.04;100.00
77110;BME280;66062;52.464;16.922;2023-10-31T05:33:53;98398.06;;;14.10;100.00
77110;BME280;66062;52.464;16.922;2023-10-31T05:36:19;98392.88;;;14.15;100.00
77110;BME280;66062;52.464;16.922;2023-10-31T05:38:45;98391.03;;;14.16;100.00
77110;BME280;66062;52.464;16.922;2023-10-31T05:41:10;98387.72;;;14.13;100.00
77110;BME280;66062;52.464;16.922;2023-10-31T05:43:36;98393.25;;;14.19;100.00
77110;BME280;66062;52.464;16.922;2023-10-31T05:46:01;98389.19;;;14.09;100.00
77110;BME280;66062;52.464;16.922;2023-10-31T05:48:27;98384.22;;;14.13;100.00
77110;BME280;66062;52.464;16.922;2023-10-31T05:50:52;98385.59;;;14.22;100.00
77110;BME280;66062;52.464;16.922;2023-10-31T05:53:17;98386.19;;;14.24;100.00
77110;BME280;66062;52.464;16.922;2023-10-31T05:55:43;98377.94;;;14.26;100.00
77110;BME280;66062;52.464;16.922;2023-10-31T05:58:08;98387.06;;;14.18;100.00
77110;BME280;66062;52.464;16.922;2023-10-31T06:00:33;98377.19;;;14.12;100.00
77110;BME280;66062;52.464;16.922;2023-10-31T06:03:00;98384.00;;;14.14;100.00
77110;BME280;66062;52.464;16.922;2023-10-31T06:05:25;98389.56;;;14.13;100.00
77110;BME280;66062;52.464;16.922;2023-10-31T06:07:51;98394.09;;;14.19;100.00
77110;BME280;66062;52.464;16.922;2023-10-31T06:10:16;98396.59;;;14.14;100.00
77110;BME280;66062;52.464;16.922;2023-10-31T06:12:42;98408.59;;;14.11;100.00
77110;BME280;66062;52.464;16.922;2023-10-31T06:15:08;98399.09;;;14.09;100.00
77110;BME280;66062;52.464;16.922;2023-10-31T06:17:33;98393.53;;;14.10;100.00
77110;BME280;66062;52.464;16.922;2023-10-31T06:19:59;98398.66;;;14.12;100.00
77110;BME280;66062;52.464;16.922;2023-10-31T06:22:24;98401.97;;;14.14;100.00
77110;BME280;66062;52.464;16.922;2023-10-31T06:24:50;98402.56;;;14.16;100.00
77110;BME280;66062;52.464;16.922;2023-10-31T06:27:15;98405.63;;;14.20;100.00
77110;BME280;66062;52.464;16.922;2023-10-31T06:29:41;98398.44;;;14.13;100.00
77110;BME280;66062;52.464;16.922;2023-10-31T06:32:06;98389.00;;;14.11;100.00
77110;BME280;66062;52.464;16.922;2023-10-31T06:34:31;98403.22;;;14.11;100.00
77110;BME280;66062;52.464;16.922;2023-10-31T06:36:57;98395.00;;;14.06;100.00
77110;BME280;66062;52.464;16.922;2023-10-31T06:39:22;98398.72;;;14.05;100.00
77110;BME280;66062;52.464;16.922;2023-10-31T06:41:48;98399.06;;;14.16;100.00
77110;BME280;66062;52.464;16.922;2023-10-31T06:44:13;98400.13;;;14.08;100.00
77110;BME280;66062;52.464;16.922;2023-10-31T06:46:39;98395.63;;;14.02;100.00
77110;BME280;66062;52.464;16.922;2023-10-31T06:49:04;98404.50;;;14.02;100.00
77110;BME280;66062;52.464;16.922;2023-10-31T06:51:29;98398.09;;;14.03;100.00
77110;BME280;66062;52.464;16.922;2023-10-31T06:53:55;98398.75;;;13.99;100.00
77110;BME280;66062;52.464;16.922;2023-10-31T06:56:20;98403.13;;;13.93;100.00
77110;BME280;66062;52.464;16.922;2023-10-31T06:58:46;98389.22;;;14.03;100.00
77110;BME280;66062;52.464;16.922;2023-10-31T07:01:11;98394.94;;;14.13;100.00
77110;BME280;66062;52.464;16.922;2023-10-31T07:03:38;98388.94;;;14.18;100.00
77110;BME280;66062;52.464;16.922;2023-10-31T07:06:04;98397.22;;;14.16;100.00
77110;BME280;66062;52.464;16.922;2023-10-31T07:08:29;98403.50;;;13.97;100.00
77110;BME280;66062;52.464;16.922;2023-10-31T07:10:55;98397.09;;;13.98;100.00
77110;BME280;66062;52.464;16.922;2023-10-31T07:13:20;98400.09;;;14.14;100.00
77110;BME280;66062;52.464;16.922;2023-10-31T07:15:46;98396.94;;;14.24;100.00
77110;BME280;66062;52.464;16.922;2023-10-31T07:18:12;98399.41;;;14.26;100.00
77110;BME280;66062;52.464;16.922;2023-10-31T07:20:38;98403.94;;;14.25;100.00
77110;BME280;66062;52.464;16.922;2023-10-31T07:23:03;98404.38;;;14.22;100.00
77110;BME280;66062;52.464;16.922;2023-10-31T07:25:28;98406.63;;;14.25;100.00
77110;BME280;66062;52.464;16.922;2023-10-31T07:27:54;98416.34;;;14.26;100.00
77110;BME280;66062;52.464;16.922;2023-10-31T07:30:19;98412.66;;;14.21;100.00
77110;BME280;66062;52.464;16.922;2023-10-31T07:32:45;98415.88;;;14.29;100.00
77110;BME280;66062;52.464;16.922;2023-10-31T07:35:10;98422.56;;;14.20;100.00
77110;BME280;66062;52.464;16.922;2023-10-31T07:37:36;98425.72;;;14.10;100.00
77110;BME280;66062;52.464;16.922;2023-10-31T07:40:01;98440.38;;;14.08;100.00
77110;BME280;66062;52.464;16.922;2023-10-31T07:42:29;98432.50;;;14.13;100.00
77110;BME280;66062;52.464;16.922;2023-10-31T07:44:55;98449.44;;;14.07;100.00
77110;BME280;66062;52.464;16.922;2023-10-31T07:47:21;98444.72;;;14.02;100.00
77110;BME280;66062;52.464;16.922;2023-10-31T07:49:46;98445.97;;;14.06;100.00
77110;BME280;66062;52.464;16.922;2023-10-31T07:52:13;98462.84;;;14.13;100.00
77110;BME280;66062;52.464;16.922;2023-10-31T07:54:39;98464.75;;;14.06;100.00
77110;BME280;66062;52.464;16.922;2023-10-31T07:57:06;98469.16;;;13.88;100.00
77110;BME280;66062;52.464;16.922;2023-10-31T07:59:33;98462.75;;;13.95;100.00
77110;BME280;66062;52.464;16.922;2023-10-31T08:01:59;98457.75;;;13.99;100.00
77110;BME280;66062;52.464;16.922;2023-10-31T08:04:25;98466.34;;;14.14;100.00
77110;BME280;66062;52.464;16.922;2023-10-31T08:06:50;98465.16;;;14.03;100.00
77110;BME280;66062;52.464;16.922;2023-10-31T08:09:15;98467.66;;;13.98;100.00
77110;BME280;66062;52.464;16.922;2023-10-31T08:11:41;98464.97;;;14.05;100.00
77110;BME280;66062;52.464;16.922;2023-10-31T08:14:07;98463.75;;;14.01;100.00
77110;BME280;66062;52.464;16.922;2023-10-31T08:16:32;98467.28;;;13.95;100.00
77110;BME280;66062;52.464;16.922;2023-10-31T08:18:58;98468.31;;;13.94;100.00
77110;BME280;66062;52.464;16.922;2023-10-31T08:21:23;98474.50;;;13.94;100.00
77110;BME280;66062;52.464;16.922;2023-10-31T08:23:49;98472.25;;;13.91;100.00
77110;BME280;66062;52.464;16.922;2023-10-31T08:26:14;98478.41;;;13.92;100.00
77110;BME280;66062;52.464;16.922;2023-10-31T08:28:40;98491.78;;;14.05;100.00
77110;BME280;66062;52.464;16.922;2023-10-31T08:31:06;98493.25;;;14.01;100.00
77110;BME280;66062;52.464;16.922;2023-10-31T08:33:31;98502.16;;;13.95;100.00
77110;BME280;66062;52.464;16.922;2023-10-31T08:35:58;98503.53;;;14.04;100.00
77110;BME280;66062;52.464;16.922;2023-10-31T08:38:24;98497.38;;;13.97;100.00
77110;BME280;66062;52.464;16.922;2023-10-31T08:40:49;98501.47;;;14.06;100.00
77110;BME280;66062;52.464;16.922;2023-10-31T08:43:15;98495.66;;;14.09;100.00
77110;BME280;66062;52.464;16.922;2023-10-31T08:45:40;98491.53;;;14.13;100.00
77110;BME280;66062;52.464;16.922;2023-10-31T08:48:05;98496.94;;;14.06;100.00
77110;BME280;66062;52.464;16.922;2023-10-31T08:50:31;98495.50;;;14.04;100.00
77110;BME280;66062;52.464;16.922;2023-10-31T08:52:56;98492.81;;;14.04;100.00
77110;BME280;66062;52.464;16.922;2023-10-31T08:55:22;98502.56;;;13.92;100.00
77110;BME280;66062;52.464;16.922;2023-10-31T08:57:47;98499.03;;;13.98;100.00
77110;BME280;66062;52.464;16.922;2023-10-31T09:00:14;98510.19;;;13.95;100.00
77110;BME280;66062;52.464;16.922;2023-10-31T09:02:40;98516.59;;;13.94;100.00
77110;BME280;66062;52.464;16.922;2023-10-31T09:05:06;98520.47;;;13.98;100.00
77110;BME280;66062;52.464;16.922;2023-10-31T09:07:31;98519.19;;;14.07;100.00
77110;BME280;66062;52.464;16.922;2023-10-31T09:09:57;98530.53;;;14.16;100.00
77110;BME280;66062;52.464;16.922;2023-10-31T09:12:23;98536.75;;;14.03;100.00
77110;BME280;66062;52.464;16.922;2023-10-31T09:14:48;98548.50;;;14.02;100.00
77110;BME280;66062;52.464;16.922;2023-10-31T09:17:13;98552.66;;;13.98;100.00
77110;BME280;66062;52.464;16.922;2023-10-31T09:19:39;98547.47;;;14.03;100.00
77110;BME280;66062;52.464;16.922;2023-10-31T09:22:04;98553.84;;;14.08;100.00
77110;BME280;66062;52.464;16.922;2023-10-31T09:24:30;98543.13;;;14.08;100.00
77110;BME280;66062;52.464;16.922;2023-10-31T09:26:55;98554.88;;;14.14;100.00
77110;BME280;66062;52.464;16.922;2023-10-31T09:29:20;98553.47;;;14.05;100.00
77110;BME280;66062;52.464;16.922;2023-10-31T09:31:46;98559.66;;;14.05;100.00
77110;BME280;66062;52.464;16.922;2023-10-31T09:34:12;98549.31;;;14.16;100.00
77110;BME280;66062;52.464;16.922;2023-10-31T09:36:39;98561.88;;;14.15;100.00
77110;BME280;66062;52.464;16.922;2023-10-31T09:39:04;98558.81;;;14.11;100.00
77110;BME280;66062;52.464;16.922;2023-10-31T09:41:30;98568.47;;;14.19;100.00
77110;BME280;66062;52.464;16.922;2023-10-31T09:43:57;98575.31;;;14.15;100.00
77110;BME280;66062;52.464;16.922;2023-10-31T09:46:23;98584.78;;;14.18;100.00
77110;BME280;66062;52.464;16.922;2023-10-31T09:48:49;98602.34;;;14.13;100.00
77110;BME280;66062;52.464;16.922;2023-10-31T09:51:15;98600.28;;;14.09;100.00
77110;BME280;66062;52.464;16.922;2023-10-31T09:53:43;98608.72;;;14.12;100.00
77110;BME280;66062;52.464;16.922;2023-10-31T09:56:09;98617.22;;;14.09;100.00
77110;BME280;66062;52.464;16.922;2023-10-31T09:58:35;98619.72;;;14.04;100.00
77110;BME280;66062;52.464;16.922;2023-10-31T10:01:01;98618.25;;;14.08;100.00
77110;BME280;66062;52.464;16.922;2023-10-31T10:03:27;98628.13;;;14.14;100.00
77110;BME280;66062;52.464;16.922;2023-10-31T10:05:52;98623.59;;;14.08;100.00
77110;BME280;66062;52.464;16.922;2023-10-31T10:08:19;98631.66;;;14.02;100.00
77110;BME280;66062;52.464;16.922;2023-10-31T10:10:44;98638.28;;;13.99;100.00
77110;BME280;66062;52.464;16.922;2023-10-31T10:13:10;98637.25;;;14.00;100.00
77110;BME280;66062;52.464;16.922;2023-10-31T10:15:47;98644.47;;;14.06;100.00
77110;BME280;66062;52.464;16.922;2023-10-31T10:18:34;98652.13;;;13.96;100.00
77110;BME280;66062;52.464;16.922;2023-10-31T10:21:04;98651.94;;;13.85;100.00
77110;BME280;66062;52.464;16.922;2023-10-31T10:23:30;98645.72;;;13.97;100.00
77110;BME280;66062;52.464;16.922;2023-10-31T10:25:57;98647.16;;;13.93;100.00
77110;BME280;66062;52.464;16.922;2023-10-31T10:28:23;98644.88;;;13.97;100.00
77110;BME280;66062;52.464;16.922;2023-10-31T10:30:52;98645.91;;;14.02;100.00
77110;BME280;66062;52.464;16.922;2023-10-31T10:33:19;98652.91;;;14.03;100.00
77110;BME280;66062;52.464;16.922;2023-10-31T10:35:44;98648.56;;;14.09;100.00
77110;BME280;66062;52.464;16.922;2023-10-31T10:38:14;98639.69;;;14.08;100.00
77110;BME280;66062;52.464;16.922;2023-10-31T10:40:45;98651.44;;;14.14;100.00
77110;BME280;66062;52.464;16.922;2023-10-31T10:43:23;98650.00;;;14.18;100.00
77110;BME280;66062;52.464;16.922;2023-10-31T10:45:58;98663.66;;;14.10;100.00
77110;BME280;66062;52.464;16.922;2023-10-31T10:48:27;98664.66;;;14.09;100.00
77110;BME280;66062;52.464;16.922;2023-10-31T10:51:11;98677.06;;;14.10;100.00
77110;BME280;66062;52.464;16.922;2023-10-31T10:53:47;98676.03;;;13.98;100.00
77110;BME280;66062;52.464;16.922;2023-10-31T10:56:20;98674.63;;;13.95;100.00
77110;BME280;66062;52.464;16.922;2023-10-31T11:01:23;98671.72;;;13.90;100.00
77110;BME280;66062;52.464;16.922;2023-10-31T11:03:49;98676.06;;;13.91;100.00
77110;BME280;66062;52.464;16.922;2023-10-31T11:06:15;98694.66;;;13.86;100.00
77110;BME280;66062;52.464;16.922;2023-10-31T11:08:42;98701.25;;;13.70;100.00
77110;BME280;66062;52.464;16.922;2023-10-31T11:11:08;98698.13;;;13.67;100.00
77110;BME280;66062;52.464;16.922;2023-10-31T11:13:34;98708.66;;;13.68;100.00
77110;BME280;66062;52.464;16.922;2023-10-31T11:16:10;98716.72;;;13.68;100.00
77110;BME280;66062;52.464;16.922;2023-10-31T11:18:37;98722.91;;;13.69;100.00
77110;BME280;66062;52.464;16.922;2023-10-31T11:21:03;98721.06;;;13.76;100.00
77110;BME280;66062;52.464;16.922;2023-10-31T11:23:29;98714.84;;;13.89;100.00
77110;BME280;66062;52.464;16.922;2023-10-31T11:25:55;98730.13;;;13.75;100.00
77110;BME280;66062;52.464;16.922;2023-10-31T11:28:20;98711.53;;;13.87;100.00
77110;BME280;66062;52.464;16.922;2023-10-31T11:30:50;98729.50;;;13.80;100.00
77110;BME280;66062;52.464;16.922;2023-10-31T11:33:20;98721.06;;;13.76;100.00
77110;BME280;66062;52.464;16.922;2023-10-31T11:36:04;98737.94;;;13.63;100.00
77110;BME280;66062;52.464;16.922;2023-10-31T11:38:35;98735.69;;;13.60;100.00
77110;BME280;66062;52.464;16.922;2023-10-31T11:41:02;98731.34;;;13.53;100.00
77110;BME280;66062;52.464;16.922;2023-10-31T11:46:18;98746.59;;;13.52;100.00
77110;BME280;66062;52.464;16.922;2023-10-31T11:48:50;98734.22;;;13.51;100.00
77110;BME280;66062;52.464;16.922;2023-10-31T11:51:18;98742.47;;;13.43;100.00
77110;BME280;66062;52.464;16.922;2023-10-31T11:53:44;98744.34;;;13.56;100.00
77110;BME280;66062;52.464;16.922;2023-10-31T11:56:10;98748.25;;;13.53;100.00
77110;BME280;66062;52.464;16.922;2023-10-31T11:58:36;98751.34;;;13.63;97.78
77110;BME280;66062;52.464;16.922;2023-10-31T12:01:04;98753.84;;;13.85;92.68
77110;BME280;66062;52.464;16.922;2023-10-31T12:03:42;98755.25;;;14.07;89.08
77110;BME280;66062;52.464;16.922;2023-10-31T12:06:09;98765.16;;;14.52;86.68
77110;BME280;66062;52.464;16.922;2023-10-31T12:08:42;98775.84;;;14.72;83.98
77110;BME280;66062;52.464;16.922;2023-10-31T12:11:16;98777.94;;;14.57;83.07
77110;BME280;66062;52.464;16.922;2023-10-31T12:16:17;98786.78;;;14.71;81.81
77110;BME280;66062;52.464;16.922;2023-10-31T12:18:43;98794.00;;;14.77;81.65
77110;BME280;66062;52.464;16.922;2023-10-31T12:21:08;98783.75;;;14.47;82.55
77110;BME280;66062;52.464;16.922;2023-10-31T12:23:36;98785.38;;;14.29;83.88
77110;BME280;66062;52.464;16.922;2023-10-31T12:26:01;98777.13;;;14.17;83.40
77110;BME280;66062;52.464;16.922;2023-10-31T12:28:27;98785.38;;;14.02;84.68
77110;BME280;66062;52.464;16.922;2023-10-31T12:30:54;98775.88;;;13.67;86.85
77110;BME280;66062;52.464;16.922;2023-10-31T12:33:20;98783.50;;;13.77;86.88
77110;BME280;66062;52.464;16.922;2023-10-31T12:35:48;98798.78;;;13.69;87.40
77110;BME280;66062;52.464;16.922;2023-10-31T12:38:14;98805.16;;;13.55;88.52
77110;BME280;66062;52.464;16.922;2023-10-31T12:40:42;98804.09;;;13.43;89.45
77110;BME280;66062;52.464;16.922;2023-10-31T12:43:08;98808.44;;;13.57;89.17